createdAt,value
2023-02-11T00:00:58.163Z,9.443771
2023-02-11T00:01:58.153Z,9.443662
2023-02-11T00:02:58.173Z,9.443704
2023-02-11T00:03:58.148Z,9.443698
2023-02-11T00:04:58.154Z,9.443688
2023-02-11T00:05:58.181Z,9.443690
2023-02-11T00:06:58.130Z,9.443699
2023-02-11T00:07:58.154Z,9.443666
2023-02-11T00:08:58.110Z,9.443681
2023-02-11T00:09:58.106Z,9.443725
2023-02-11T00:10:58.139Z,9.443706
2023-02-11T00:11:58.138Z,9.443718
2023-02-11T00:12:58.134Z,9.443683
2023-02-11T00:13:58.140Z,9.443649
2023-02-11T00:14:58.120Z,9.443678
2023-02-11T00:15:58.080Z,9.443680
2023-02-11T00:16:58.131Z,9.443648
2023-02-11T00:17:58.067Z,9.443587
2023-02-11T00:18:58.063Z,9.443607
2023-02-11T00:19:58.048Z,9.443595
2023-02-11T00:20:58.048Z,9.443669
2023-02-11T00:21:58.068Z,9.443673
2023-02-11T00:22:58.022Z,9.443710
2023-02-11T00:23:58.015Z,9.443676
2023-02-11T00:24:58.012Z,9.443637
2023-02-11T00:25:58.003Z,9.443574
2023-02-11T00:26:57.996Z,9.443606
2023-02-11T00:27:58.116Z,9.443787
2023-02-11T00:28:58.014Z,9.443749
2023-02-11T00:29:57.986Z,9.443684
2023-02-11T00:30:58.088Z,9.443678
2023-02-11T00:31:58.132Z,9.443572
2023-02-11T00:32:57.985Z,9.443552
2023-02-11T00:33:57.963Z,9.443668
2023-02-11T00:34:57.961Z,9.443716
2023-02-11T00:35:57.973Z,9.443689
2023-02-11T00:36:57.956Z,9.443666
2023-02-11T00:37:57.971Z,9.443820
2023-02-11T00:38:57.979Z,9.443726
2023-02-11T00:39:57.928Z,9.443692
2023-02-11T00:40:57.937Z,9.443737
2023-02-11T00:41:57.940Z,9.443777
2023-02-11T00:42:57.974Z,9.443747
2023-02-11T00:43:57.936Z,9.443749
2023-02-11T00:44:57.911Z,9.443740
2023-02-11T00:45:57.942Z,9.443676
2023-02-11T00:46:57.895Z,9.443721
2023-02-11T00:47:57.890Z,9.443710
2023-02-11T00:48:58.054Z,9.443678
2023-02-11T00:49:57.873Z,9.443695
2023-02-11T00:50:58.862Z,9.443552
2023-02-11T00:51:57.909Z,9.443663
2023-02-11T00:52:57.950Z,9.443680
2023-02-11T00:53:57.907Z,9.443713
2023-02-11T00:54:57.829Z,9.443769
2023-02-11T00:55:57.844Z,9.443702
2023-02-11T00:56:57.843Z,9.443735
2023-02-11T00:57:57.886Z,9.443696
2023-02-11T00:58:57.849Z,9.443686
2023-02-11T00:59:57.817Z,9.443665
2023-02-11T01:00:57.894Z,9.443668
2023-02-11T01:01:58.844Z,9.443610
2023-02-11T01:02:57.830Z,9.443602
2023-02-11T01:03:57.837Z,9.443638
2023-02-11T01:04:57.811Z,9.443690
2023-02-11T01:05:57.782Z,9.443571
2023-02-11T01:06:57.791Z,9.443546
2023-02-11T01:07:57.780Z,9.443598
2023-02-11T01:08:57.797Z,9.443626
2023-02-11T01:09:57.770Z,9.443627
2023-02-11T01:10:57.794Z,9.443640
2023-02-11T01:11:58.758Z,9.443652
2023-02-11T01:12:57.741Z,9.443666
2023-02-11T01:13:57.761Z,9.443696
2023-02-11T01:14:57.737Z,9.443725
2023-02-11T01:15:57.843Z,9.443757
2023-02-11T01:16:57.761Z,9.443774
2023-02-11T01:17:57.719Z,9.443646
2023-02-11T01:18:57.707Z,9.443595
2023-02-11T01:19:57.712Z,9.443677
2023-02-11T01:20:57.690Z,9.443633
2023-02-11T01:21:57.686Z,9.443707
2023-02-11T01:22:57.700Z,9.443759
2023-02-11T01:23:57.679Z,9.443624
2023-02-11T01:24:57.667Z,9.443568
2023-02-11T01:25:57.691Z,9.443632
2023-02-11T01:26:57.660Z,9.443724
2023-02-11T01:27:57.684Z,9.443741
2023-02-11T01:28:57.646Z,9.443699
2023-02-11T01:29:57.654Z,9.443657
2023-02-11T01:30:57.749Z,9.443630
2023-02-11T01:31:57.685Z,9.443615
2023-02-11T01:32:57.632Z,9.443553
2023-02-11T01:33:57.634Z,9.443695
2023-02-11T01:34:57.614Z,9.443772
2023-02-11T01:35:57.625Z,9.443735
2023-02-11T01:36:57.609Z,9.443668
2023-02-11T01:37:57.604Z,9.443745
2023-02-11T01:38:57.598Z,9.443673
2023-02-11T01:39:57.585Z,9.443628
2023-02-11T01:40:57.597Z,9.443559
2023-02-11T01:41:57.592Z,9.443593
2023-02-11T01:42:57.558Z,9.443600
2023-02-11T01:43:57.560Z,9.443639
2023-02-11T01:44:57.553Z,9.443690
2023-02-11T01:45:57.558Z,9.443802
2023-02-11T01:46:57.550Z,9.443604
2023-02-11T01:47:57.556Z,9.443690
2023-02-11T01:48:57.660Z,9.443723
2023-02-11T01:49:57.520Z,9.443661
2023-02-11T01:50:57.523Z,9.443681
2023-02-11T01:51:57.523Z,9.443712
2023-02-11T01:52:57.533Z,9.443871
2023-02-11T01:53:57.512Z,9.443670
2023-02-11T01:54:57.502Z,9.443660
2023-02-11T01:55:57.503Z,9.443707
2023-02-11T01:56:57.493Z,9.443697
2023-02-11T01:57:57.504Z,9.443680
2023-02-11T01:58:57.485Z,9.443725
2023-02-11T01:59:57.564Z,9.443706
2023-02-11T02:00:57.466Z,9.443724
2023-02-11T02:01:57.501Z,9.443672
2023-02-11T02:02:57.457Z,9.443673
2023-02-11T02:03:57.544Z,9.443677
2023-02-11T02:04:57.486Z,9.443701
2023-02-11T02:05:57.457Z,9.443572
2023-02-11T02:06:57.433Z,9.443592
2023-02-11T02:07:57.434Z,9.443545
2023-02-11T02:08:57.435Z,9.443572
2023-02-11T02:09:57.432Z,9.443669
2023-02-11T02:10:57.404Z,9.443847
2023-02-11T02:11:57.408Z,9.444071
2023-02-11T02:12:57.394Z,9.443897
2023-02-11T02:13:57.385Z,9.443443
2023-02-11T02:14:57.406Z,9.443441
2023-02-11T02:15:57.400Z,9.443103
2023-02-11T02:16:57.378Z,9.443019
2023-02-11T02:17:57.394Z,9.443222
2023-02-11T02:18:57.383Z,9.443320
2023-02-11T02:19:57.364Z,9.443416
2023-02-11T02:20:58.339Z,9.443325
2023-02-11T02:21:57.338Z,9.443142
2023-02-11T02:22:57.569Z,9.443336
2023-02-11T02:23:57.333Z,9.443441
2023-02-11T02:24:57.322Z,9.443089
2023-02-11T02:25:57.346Z,9.442995
2023-02-11T02:26:57.319Z,9.442855
2023-02-11T02:27:57.481Z,9.443135
2023-02-11T02:28:57.304Z,9.443599
2023-02-11T02:29:57.316Z,9.443748
2023-02-11T02:30:57.481Z,9.443828
2023-02-11T02:31:57.285Z,9.443855
2023-02-11T02:32:57.354Z,9.443852
2023-02-11T02:33:57.308Z,9.443742
2023-02-11T02:34:57.276Z,9.443753
2023-02-11T02:35:57.257Z,9.443664
2023-02-11T02:36:57.277Z,9.443674
2023-02-11T02:37:57.396Z,9.443697
2023-02-11T02:38:57.242Z,9.443700
2023-02-11T02:39:57.255Z,9.443730
2023-02-11T02:40:57.237Z,9.443713
2023-02-11T02:41:57.231Z,9.443706
2023-02-11T02:42:57.278Z,9.443651
2023-02-11T02:43:57.214Z,9.443734
2023-02-11T02:44:57.206Z,9.443745
2023-02-11T02:45:57.200Z,9.443743
2023-02-11T02:46:57.319Z,9.443719
2023-02-11T02:47:57.196Z,9.443719
2023-02-11T02:48:57.207Z,9.443829
2023-02-11T02:49:57.184Z,9.443804
2023-02-11T02:50:57.171Z,9.443767
2023-02-11T02:51:57.173Z,9.443796
2023-02-11T02:52:57.161Z,9.443856
2023-02-11T02:53:58.166Z,9.443767
2023-02-11T02:54:57.160Z,9.443637
2023-02-11T02:55:57.141Z,9.443714
2023-02-11T02:56:57.139Z,9.443707
2023-02-11T02:57:57.233Z,9.443709
2023-02-11T02:58:57.141Z,9.443744
2023-02-11T02:59:57.134Z,9.443717
2023-02-11T03:00:57.158Z,9.443719
2023-02-11T03:01:57.098Z,9.443666
2023-02-11T03:02:57.109Z,9.443734
2023-02-11T03:03:57.173Z,9.443745
2023-02-11T03:04:57.090Z,9.443765
2023-02-11T03:05:57.083Z,9.443784
2023-02-11T03:06:57.083Z,9.443813
2023-02-11T03:07:57.069Z,9.443886
2023-02-11T03:08:57.077Z,9.443800
2023-02-11T03:09:57.080Z,9.443647
2023-02-11T03:10:57.051Z,9.443671
2023-02-11T03:11:57.045Z,9.443707
2023-02-11T03:12:57.044Z,9.443716
2023-02-11T03:13:57.052Z,9.443668
2023-02-11T03:14:57.050Z,9.443610
2023-02-11T03:15:57.081Z,9.443621
2023-02-11T03:16:57.026Z,9.443658
2023-02-11T03:17:57.024Z,9.443647
2023-02-11T03:18:57.014Z,9.443641
2023-02-11T03:19:57.009Z,9.443702
2023-02-11T03:20:57.016Z,9.443639
2023-02-11T03:21:56.994Z,9.443645
2023-02-11T03:22:57.054Z,9.443691
2023-02-11T03:23:56.976Z,9.443773
2023-02-11T03:24:56.978Z,9.443696
2023-02-11T03:25:56.988Z,9.443637
2023-02-11T03:26:56.968Z,9.443636
2023-02-11T03:27:57.011Z,9.443737
2023-02-11T03:28:56.948Z,9.443795
2023-02-11T03:29:56.947Z,9.443793
2023-02-11T03:30:57.027Z,9.443766
2023-02-11T03:31:56.967Z,9.443591
2023-02-11T03:32:56.936Z,9.443576
2023-02-11T03:33:56.944Z,9.443682
2023-02-11T03:34:56.912Z,9.443748
2023-02-11T03:35:56.939Z,9.443768
2023-02-11T03:36:56.910Z,9.443742
2023-02-11T03:37:56.922Z,9.443735
2023-02-11T03:38:56.908Z,9.443753
2023-02-11T03:39:56.919Z,9.443763
2023-02-11T03:40:56.894Z,9.443711
2023-02-11T03:41:56.868Z,9.443671
2023-02-11T03:42:56.892Z,9.443726
2023-02-11T03:43:56.865Z,9.443713
2023-02-11T03:44:56.860Z,9.443751
2023-02-11T03:45:56.914Z,9.443891
2023-02-11T03:46:56.851Z,9.443849
2023-02-11T03:47:56.891Z,9.443830
2023-02-11T03:48:56.831Z,9.443801
2023-02-11T03:49:56.836Z,9.443776
2023-02-11T03:50:56.824Z,9.443697
2023-02-11T03:51:56.822Z,9.443750
2023-02-11T03:52:56.819Z,9.443784
2023-02-11T03:53:56.816Z,9.443808
2023-02-11T03:54:56.804Z,9.443771
2023-02-11T03:55:56.798Z,9.443743
2023-02-11T03:56:56.794Z,9.443665
2023-02-11T03:57:56.792Z,9.443642
2023-02-11T03:58:56.797Z,9.443717
2023-02-11T03:59:56.773Z,9.443830
2023-02-11T04:00:56.786Z,9.443805
2023-02-11T04:01:56.752Z,9.443735
2023-02-11T04:02:56.869Z,9.443664
2023-02-11T04:03:56.768Z,9.443414
2023-02-11T04:04:57.746Z,9.443438
2023-02-11T04:05:56.767Z,9.443530
2023-02-11T04:06:56.732Z,9.443267
2023-02-11T04:07:56.742Z,9.443300
2023-02-11T04:08:56.722Z,9.443313
2023-02-11T04:09:56.704Z,9.443320
2023-02-11T04:10:56.709Z,9.443232
2023-02-11T04:11:56.697Z,9.443379
2023-02-11T04:12:57.709Z,9.443540
2023-02-11T04:13:56.686Z,9.443427
2023-02-11T04:14:56.693Z,9.443476
2023-02-11T04:15:56.772Z,9.443530
2023-02-11T04:16:56.667Z,9.443481
2023-02-11T04:17:56.664Z,9.443497
2023-02-11T04:18:56.648Z,9.443549
2023-02-11T04:19:56.671Z,9.443570
2023-02-11T04:20:56.658Z,9.443623
2023-02-11T04:21:56.638Z,9.443626
2023-02-11T04:22:56.620Z,9.443709
2023-02-11T04:23:56.638Z,9.443744
2023-02-11T04:24:56.656Z,9.443731
2023-02-11T04:25:56.613Z,9.443749
2023-02-11T04:26:56.619Z,9.443789
2023-02-11T04:27:56.636Z,9.443598
2023-02-11T04:28:56.601Z,9.443674
2023-02-11T04:29:56.596Z,9.443625
2023-02-11T04:30:56.641Z,9.443600
2023-02-11T04:31:56.669Z,9.443655
2023-02-11T04:32:56.568Z,9.443809
2023-02-11T04:33:56.567Z,9.443849
2023-02-11T04:34:56.563Z,9.443739
2023-02-11T04:35:56.566Z,9.443660
2023-02-11T04:36:56.563Z,9.443486
2023-02-11T04:37:56.531Z,9.443462
2023-02-11T04:38:56.542Z,9.443579
2023-02-11T04:39:56.538Z,9.443588
2023-02-11T04:40:56.570Z,9.443607
2023-02-11T04:41:56.523Z,9.443697
2023-02-11T04:42:56.523Z,9.443692
2023-02-11T04:43:57.509Z,9.443554
2023-02-11T04:44:56.506Z,9.443657
2023-02-11T04:45:56.513Z,9.443674
2023-02-11T04:46:56.495Z,9.443650
2023-02-11T04:47:56.500Z,9.443678
2023-02-11T04:48:56.478Z,9.443631
2023-02-11T04:49:56.485Z,9.443668
2023-02-11T04:50:56.472Z,9.443635
2023-02-11T04:51:56.480Z,9.443695
2023-02-11T04:52:56.466Z,9.443897
2023-02-11T04:53:56.453Z,9.443793
2023-02-11T04:54:56.441Z,9.443787
2023-02-11T04:55:56.467Z,9.443757
2023-02-11T04:56:56.452Z,9.443774
2023-02-11T04:57:56.438Z,9.443785
2023-02-11T04:58:56.423Z,9.443740
2023-02-11T04:59:56.418Z,9.443738
2023-02-11T05:00:56.450Z,9.443768
2023-02-11T05:01:56.420Z,9.443825
2023-02-11T05:02:56.438Z,9.443834
2023-02-11T05:03:56.479Z,9.443747
2023-02-11T05:04:56.389Z,9.443743
2023-02-11T05:05:56.393Z,9.443818
2023-02-11T05:06:58.583Z,9.443840
2023-02-11T05:07:57.395Z,9.443914
2023-02-11T05:08:56.360Z,9.443849
2023-02-11T05:09:56.358Z,9.443810
2023-02-11T05:10:56.348Z,9.443866
2023-02-11T05:11:56.355Z,9.443863
2023-02-11T05:12:56.367Z,9.443695
2023-02-11T05:13:56.355Z,9.443557
2023-02-11T05:14:56.325Z,9.443655
2023-02-11T05:15:56.342Z,9.443684
2023-02-11T05:16:56.423Z,9.443737
2023-02-11T05:17:56.330Z,9.443756
2023-02-11T05:18:56.391Z,9.443687
2023-02-11T05:19:56.316Z,9.443701
2023-02-11T05:20:56.296Z,9.443750
2023-02-11T05:22:02.542Z,9.443816
2023-02-11T05:22:58.302Z,9.443794
2023-02-11T05:23:56.377Z,9.443788
2023-02-11T05:24:56.335Z,9.443806
2023-02-11T05:25:56.302Z,9.443756
2023-02-11T05:26:56.256Z,9.443759
2023-02-11T05:27:56.289Z,9.443794
2023-02-11T05:28:56.255Z,9.443815
2023-02-11T05:29:56.255Z,9.443812
2023-02-11T05:30:56.282Z,9.443867
2023-02-11T05:31:56.234Z,9.443872
2023-02-11T05:32:56.224Z,9.443675
2023-02-11T05:33:56.220Z,9.443705
2023-02-11T05:34:56.206Z,9.443902
2023-02-11T05:35:56.215Z,9.443857
2023-02-11T05:36:56.255Z,9.443900
2023-02-11T05:37:56.199Z,9.443998
2023-02-11T05:38:56.224Z,9.443812
2023-02-11T05:39:56.198Z,9.443661
2023-02-11T05:40:56.192Z,9.443658
2023-02-11T05:41:56.191Z,9.443610
2023-02-11T05:42:56.160Z,9.443795
2023-02-11T05:43:56.150Z,9.443676
2023-02-11T05:44:56.136Z,9.443691
2023-02-11T05:45:56.684Z,9.443724
2023-02-11T05:46:56.153Z,9.443716
2023-02-11T05:47:56.156Z,9.443819
2023-02-11T05:48:56.136Z,9.443728
2023-02-11T05:49:56.133Z,9.443698
2023-02-11T05:50:56.133Z,9.443676
2023-02-11T05:51:56.130Z,9.443697
2023-02-11T05:52:56.151Z,9.443741
2023-02-11T05:53:56.104Z,9.443709
2023-02-11T05:54:56.085Z,9.443776
2023-02-11T05:55:56.083Z,9.443769
2023-02-11T05:56:56.080Z,9.443718
2023-02-11T05:57:56.151Z,9.443768
2023-02-11T05:58:56.073Z,9.443742
2023-02-11T05:59:56.080Z,9.443753
2023-02-11T06:00:56.064Z,9.443645
2023-02-11T06:01:56.058Z,9.443734
2023-02-11T06:02:56.059Z,9.443619
2023-02-11T06:03:56.103Z,9.443657
2023-02-11T06:04:56.049Z,9.443666
2023-02-11T06:05:56.019Z,9.443679
2023-02-11T06:06:56.030Z,9.443781
2023-02-11T06:07:56.050Z,9.443742
2023-02-11T06:08:56.028Z,9.443708
2023-02-11T06:09:56.004Z,9.443725
2023-02-11T06:10:56.008Z,9.443701
2023-02-11T06:11:55.980Z,9.443689
2023-02-11T06:12:55.979Z,9.443769
2023-02-11T06:13:56.004Z,9.443740
2023-02-11T06:14:55.997Z,9.443757
2023-02-11T06:15:55.987Z,9.443799
2023-02-11T06:16:55.960Z,9.443851
2023-02-11T06:17:56.001Z,9.443768
2023-02-11T06:18:56.024Z,9.443780
2023-02-11T06:19:55.971Z,9.443738
2023-02-11T06:20:55.928Z,9.443697
2023-02-11T06:21:55.939Z,9.443752
2023-02-11T06:22:55.931Z,9.443815
2023-02-11T06:23:55.906Z,9.443798
2023-02-11T06:25:01.861Z,9.443782
2023-02-11T06:25:57.915Z,9.443812
2023-02-11T06:26:55.904Z,9.443798
2023-02-11T06:27:55.909Z,9.443742
2023-02-11T06:28:55.897Z,9.443698
2023-02-11T06:29:55.890Z,9.443679
2023-02-11T06:30:55.957Z,9.443752
2023-02-11T06:31:56.173Z,9.443571
2023-02-11T06:32:55.936Z,9.443651
2023-02-11T06:33:55.872Z,9.443680
2023-02-11T06:34:55.919Z,9.443650
2023-02-11T06:35:55.868Z,9.443653
2023-02-11T06:36:55.846Z,9.443681
2023-02-11T06:37:55.836Z,9.443709
2023-02-11T06:38:55.888Z,9.443661
2023-02-11T06:39:55.816Z,9.443622
2023-02-11T06:40:55.836Z,9.443610
2023-02-11T06:41:55.821Z,9.443684
2023-02-11T06:42:55.828Z,9.443619
2023-02-11T06:43:55.828Z,9.443484
2023-02-11T06:44:55.795Z,9.443587
2023-02-11T06:45:55.801Z,9.443691
2023-02-11T06:46:55.984Z,9.443738
2023-02-11T06:47:55.761Z,9.443681
2023-02-11T06:48:55.778Z,9.443692
2023-02-11T06:49:55.763Z,9.443662
2023-02-11T06:50:55.767Z,9.443648
2023-02-11T06:51:55.784Z,9.443690
2023-02-11T06:52:55.753Z,9.443648
2023-02-11T06:53:55.747Z,9.443645
2023-02-11T06:54:55.748Z,9.443670
2023-02-11T06:55:55.725Z,9.443711
2023-02-11T06:56:55.723Z,9.443710
2023-02-11T06:57:55.734Z,9.443694
2023-02-11T06:58:55.720Z,9.443728
2023-02-11T06:59:55.734Z,9.443716
2023-02-11T07:00:55.692Z,9.443706
2023-02-11T07:01:55.755Z,9.443714
2023-02-11T07:02:55.754Z,9.443706
2023-02-11T07:03:55.673Z,9.443733
2023-02-11T07:04:55.681Z,9.443726
2023-02-11T07:05:55.703Z,9.443722
2023-02-11T07:06:55.676Z,9.443722
2023-02-11T07:07:55.675Z,9.443702
2023-02-11T07:08:55.642Z,9.443723
2023-02-11T07:09:55.647Z,9.443748
2023-02-11T07:10:55.704Z,9.443727
2023-02-11T07:11:55.673Z,9.443747
2023-02-11T07:12:58.451Z,9.443722
2023-02-11T07:13:55.659Z,9.443723
2023-02-11T07:14:55.666Z,9.443718
2023-02-11T07:15:55.657Z,9.443670
2023-02-11T07:16:55.653Z,9.443722
2023-02-11T07:17:55.683Z,9.443784
2023-02-11T07:18:55.653Z,9.443836
2023-02-11T07:19:55.580Z,9.443832
2023-02-11T07:20:55.591Z,9.443812
2023-02-11T07:21:55.586Z,9.443847
2023-02-11T07:22:55.597Z,9.443855
2023-02-11T07:23:55.580Z,9.443782
2023-02-11T07:24:55.591Z,9.443748
2023-02-11T07:25:55.550Z,9.443737
2023-02-11T07:26:55.559Z,9.443780
2023-02-11T07:27:55.578Z,9.443824
2023-02-11T07:28:55.560Z,9.443810
2023-02-11T07:29:55.531Z,9.443740
2023-02-11T07:30:55.550Z,9.443819
2023-02-11T07:31:55.561Z,9.443799
2023-02-11T07:32:55.516Z,9.443747
2023-02-11T07:33:55.492Z,9.443670
2023-02-11T07:34:55.506Z,9.443796
2023-02-11T07:35:55.473Z,9.443728
2023-02-11T07:36:55.479Z,9.443747
2023-02-11T07:37:55.472Z,9.443742
2023-02-11T07:38:55.470Z,9.443692
2023-02-11T07:39:55.468Z,9.443541
2023-02-11T07:40:55.471Z,9.443679
2023-02-11T07:41:55.468Z,9.443664
2023-02-11T07:42:55.450Z,9.443576
2023-02-11T07:43:55.470Z,9.443596
2023-02-11T07:44:55.466Z,9.443630
2023-02-11T07:45:57.679Z,9.443625
2023-02-11T07:46:55.468Z,9.443716
2023-02-11T07:47:55.422Z,9.443806
2023-02-11T07:48:55.418Z,9.443757
2023-02-11T07:49:56.644Z,9.443652
2023-02-11T07:50:56.414Z,9.443612
2023-02-11T07:51:55.412Z,9.443662
2023-02-11T07:52:55.377Z,9.443704
2023-02-11T07:53:55.396Z,9.443690
2023-02-11T07:54:55.403Z,9.443707
2023-02-11T07:55:55.400Z,9.443752
2023-02-11T07:56:55.368Z,9.443756
2023-02-11T07:57:55.381Z,9.443761
2023-02-11T07:58:55.400Z,9.443826
2023-02-11T07:59:55.401Z,9.443764
2023-02-11T08:00:55.443Z,9.443760
2023-02-11T08:01:55.461Z,9.443709
2023-02-11T08:02:55.373Z,9.443798
2023-02-11T08:03:55.367Z,9.443742
2023-02-11T08:04:55.321Z,9.443607
2023-02-11T08:05:55.374Z,9.443627
2023-02-11T08:06:57.836Z,9.443683
2023-02-11T08:07:55.315Z,9.443727
2023-02-11T08:08:55.468Z,9.443778
2023-02-11T08:09:55.299Z,9.443801
2023-02-11T08:10:55.317Z,9.443805
2023-02-11T08:11:55.352Z,9.443772
2023-02-11T08:12:55.294Z,9.443771
2023-02-11T08:13:55.247Z,9.443884
2023-02-11T08:14:55.245Z,9.443787
2023-02-11T08:15:55.237Z,9.443756
2023-02-11T08:16:55.387Z,9.443701
2023-02-11T08:17:55.265Z,9.443760
2023-02-11T08:18:55.227Z,9.443734
2023-02-11T08:19:55.231Z,9.443745
2023-02-11T08:20:55.237Z,9.443754
2023-02-11T08:21:55.197Z,9.443684
2023-02-11T08:22:55.219Z,9.443656
2023-02-11T08:23:55.188Z,9.443636
2023-02-11T08:24:55.197Z,9.443566
2023-02-11T08:25:55.182Z,9.443594
2023-02-11T08:26:55.214Z,9.443687
2023-02-11T08:27:55.242Z,9.443712
2023-02-11T08:28:55.180Z,9.443713
2023-02-11T08:29:55.196Z,9.443727
2023-02-11T08:30:55.192Z,9.443746
2023-02-11T08:31:55.295Z,9.443665
2023-02-11T08:32:55.133Z,9.443735
2023-02-11T08:33:55.180Z,9.443797
2023-02-11T08:34:55.151Z,9.443720
2023-02-11T08:35:55.149Z,9.443756
2023-02-11T08:36:55.265Z,9.443729
2023-02-11T08:37:55.121Z,9.443626
2023-02-11T08:39:05.658Z,9.443632
2023-02-11T08:39:56.120Z,9.443605
2023-02-11T08:40:55.085Z,9.443745
2023-02-11T08:41:56.084Z,9.443802
2023-02-11T08:42:55.069Z,9.443860
2023-02-11T08:43:55.072Z,9.443758
2023-02-11T08:44:55.085Z,9.443820
2023-02-11T08:45:55.074Z,9.443727
2023-02-11T08:46:55.091Z,9.443695
2023-02-11T08:47:55.073Z,9.443839
2023-02-11T08:48:55.076Z,9.443808
2023-02-11T08:49:55.111Z,9.443772
2023-02-11T08:50:55.025Z,9.443747
2023-02-11T08:51:55.148Z,9.443705
2023-02-11T08:52:55.032Z,9.443733
2023-02-11T08:53:55.037Z,9.443789
2023-02-11T08:54:55.043Z,9.443781
2023-02-11T08:55:55.018Z,9.443665
2023-02-11T08:56:55.005Z,9.443665
2023-02-11T08:57:55.032Z,9.443705
2023-02-11T08:58:54.989Z,9.443716
2023-02-11T08:59:54.974Z,9.443709
2023-02-11T09:00:55.016Z,9.443727
2023-02-11T09:01:54.990Z,9.443644
2023-02-11T09:02:55.025Z,9.443645
2023-02-11T09:03:54.989Z,9.443693
2023-02-11T09:04:54.965Z,9.443694
2023-02-11T09:05:54.968Z,9.443685
2023-02-11T09:06:54.952Z,9.443684
2023-02-11T09:07:54.931Z,9.443580
2023-02-11T09:08:55.020Z,9.443658
2023-02-11T09:09:54.918Z,9.443708
2023-02-11T09:10:54.899Z,9.443746
2023-02-11T09:11:54.918Z,9.443702
2023-02-11T09:12:54.882Z,9.443694
2023-02-11T09:13:54.949Z,9.443702
2023-02-11T09:14:54.882Z,9.443639
2023-02-11T09:15:54.876Z,9.443658
2023-02-11T09:16:54.927Z,9.443680
2023-02-11T09:17:54.860Z,9.443692
2023-02-11T09:18:54.942Z,9.443748
2023-02-11T09:19:54.890Z,9.443686
2023-02-11T09:20:54.911Z,9.443692
2023-02-11T09:21:54.844Z,9.443574
2023-02-11T09:22:54.831Z,9.443659
2023-02-11T09:23:54.824Z,9.443735
2023-02-11T09:24:54.842Z,9.443712
2023-02-11T09:25:54.914Z,9.443634
2023-02-11T09:26:54.824Z,9.443529
2023-02-11T09:27:54.798Z,9.443459
2023-02-11T09:28:54.840Z,9.443666
2023-02-11T09:29:54.804Z,9.443587
2023-02-11T09:30:55.296Z,9.443786
2023-02-11T09:31:54.968Z,9.443787
2023-02-11T09:32:54.802Z,9.443681
2023-02-11T09:33:54.810Z,9.443728
2023-02-11T09:34:54.867Z,9.443853
2023-02-11T09:35:54.750Z,9.443844
2023-02-11T09:36:54.803Z,9.443749
2023-02-11T09:37:54.765Z,9.443728
2023-02-11T09:38:54.760Z,9.443745
2023-02-11T09:39:54.735Z,9.443750
2023-02-11T09:40:54.722Z,9.443788
2023-02-11T09:41:54.740Z,9.443758
2023-02-11T09:42:56.101Z,9.443714
2023-02-11T09:43:54.728Z,9.443722
2023-02-11T09:44:54.705Z,9.443734
2023-02-11T09:45:54.730Z,9.443729
2023-02-11T09:46:54.691Z,9.443778
2023-02-11T09:47:54.689Z,9.443783
2023-02-11T09:48:54.691Z,9.443733
2023-02-11T09:49:54.706Z,9.443714
2023-02-11T09:50:54.668Z,9.443715
2023-02-11T09:51:55.656Z,9.443727
2023-02-11T09:52:54.644Z,9.443739
2023-02-11T09:53:54.648Z,9.443762
2023-02-11T09:54:54.671Z,9.443762
2023-02-11T09:55:54.661Z,9.443718
2023-02-11T09:56:54.633Z,9.443724
2023-02-11T09:57:54.644Z,9.443784
2023-02-11T09:58:54.631Z,9.443753
2023-02-11T09:59:54.650Z,9.443720
2023-02-11T10:00:54.645Z,9.443720
2023-02-11T10:01:54.621Z,9.443785
2023-02-11T10:02:54.625Z,9.443753
2023-02-11T10:03:54.686Z,9.443712
2023-02-11T10:04:54.668Z,9.443757
2023-02-11T10:05:54.583Z,9.443774
2023-02-11T10:06:54.600Z,9.443754
2023-02-11T10:07:54.593Z,9.443776
2023-02-11T10:08:54.594Z,9.443762
2023-02-11T10:09:54.637Z,9.443726
2023-02-11T10:10:54.638Z,9.443793
2023-02-11T10:11:54.567Z,9.443834
2023-02-11T10:12:54.546Z,9.443816
2023-02-11T10:13:54.780Z,9.443872
2023-02-11T10:14:54.542Z,9.443831
2023-02-11T10:15:54.611Z,9.443768
2023-02-11T10:16:54.561Z,9.443784
2023-02-11T10:17:54.632Z,9.443777
2023-02-11T10:18:54.507Z,9.443785
2023-02-11T10:19:54.500Z,9.443769
2023-02-11T10:20:54.508Z,9.443733
2023-02-11T10:21:54.537Z,9.443743
2023-02-11T10:22:54.541Z,9.443760
2023-02-11T10:23:54.572Z,9.443727
2023-02-11T10:24:54.494Z,9.443714
2023-02-11T10:25:55.052Z,9.443727
2023-02-11T10:26:54.492Z,9.443667
2023-02-11T10:27:54.448Z,9.443808
2023-02-11T10:28:54.451Z,9.443743
2023-02-11T10:29:54.463Z,9.443675
2023-02-11T10:30:54.956Z,9.443719
2023-02-11T10:31:56.579Z,9.443685
2023-02-11T10:32:54.460Z,9.443627
2023-02-11T10:33:54.435Z,9.443610
2023-02-11T10:34:54.414Z,9.443717
2023-02-11T10:35:54.432Z,9.443706
2023-02-11T10:36:54.411Z,9.443684
2023-02-11T10:37:54.413Z,9.443765
2023-02-11T10:38:54.393Z,9.443707
2023-02-11T10:39:54.404Z,9.443679
2023-02-11T10:40:54.454Z,9.443733
2023-02-11T10:41:54.407Z,9.443701
2023-02-11T10:42:55.798Z,9.443718
2023-02-11T10:43:55.421Z,9.443630
2023-02-11T10:44:54.352Z,9.443573
2023-02-11T10:45:54.366Z,9.443611
2023-02-11T10:46:54.351Z,9.443651
2023-02-11T10:47:54.366Z,9.443454
2023-02-11T10:48:54.331Z,9.443411
2023-02-11T10:49:54.333Z,9.443460
2023-02-11T10:50:54.340Z,9.443543
2023-02-11T10:51:54.321Z,9.443582
2023-02-11T10:52:54.328Z,9.443660
2023-02-11T10:53:55.209Z,9.443534
2023-02-11T10:54:54.392Z,9.443624
2023-02-11T10:55:54.420Z,9.443563
2023-02-11T10:56:54.318Z,9.443637
2023-02-11T10:57:55.059Z,9.443702
2023-02-11T10:58:55.301Z,9.443693
2023-02-11T10:59:54.461Z,9.443597
2023-02-11T11:00:54.357Z,9.443613
2023-02-11T11:01:54.338Z,9.443588
2023-02-11T11:02:54.323Z,9.443677
2023-02-11T11:03:54.294Z,9.443675
2023-02-11T11:04:54.319Z,9.443743
2023-02-11T11:05:57.311Z,9.443672
2023-02-11T11:06:54.249Z,9.443621
2023-02-11T11:07:54.245Z,9.443737
2023-02-11T11:08:54.243Z,9.443688
2023-02-11T11:09:54.217Z,9.443745
2023-02-11T11:10:54.207Z,9.443609
2023-02-11T11:11:54.213Z,9.443512
2023-02-11T11:12:54.298Z,9.443627
2023-02-11T11:13:54.226Z,9.443533
2023-02-11T11:14:54.212Z,9.443622
2023-02-11T11:15:54.224Z,9.443729
2023-02-11T11:16:54.207Z,9.443552
2023-02-11T11:17:59.620Z,9.443556
2023-02-11T11:18:55.235Z,9.443703
2023-02-11T11:19:54.191Z,9.443677
2023-02-11T11:20:54.194Z,9.443542
2023-02-11T11:21:54.153Z,9.443551
2023-02-11T11:22:54.220Z,9.443583
2023-02-11T11:23:54.144Z,9.443608
2023-02-11T11:24:54.655Z,9.443634
2023-02-11T11:25:54.251Z,9.443553
2023-02-11T11:26:54.140Z,9.443617
2023-02-11T11:27:54.141Z,9.443543
2023-02-11T11:28:54.136Z,9.443608
2023-02-11T11:29:54.118Z,9.443562
2023-02-11T11:30:54.592Z,9.443407
2023-02-11T11:31:54.145Z,9.443434
2023-02-11T11:32:54.140Z,9.443540
2023-02-11T11:33:54.090Z,9.443546
2023-02-11T11:34:54.104Z,9.443598
2023-02-11T11:35:54.080Z,9.443467
2023-02-11T11:36:54.039Z,9.443566
2023-02-11T11:37:55.187Z,9.443649
2023-02-11T11:38:54.078Z,9.443773
2023-02-11T11:39:54.029Z,9.443800
2023-02-11T11:40:54.037Z,9.443673
2023-02-11T11:41:54.035Z,9.443569
2023-02-11T11:42:54.053Z,9.443429
2023-02-11T11:43:54.028Z,9.443563
2023-02-11T11:44:54.072Z,9.443577